RA73750 OSDI-OSLK
Flight info
| Callsign | RA73750 |
|---|---|
| Flight time | 0h 27m |
| Altitude | 25000 |
| Route | LEB1 LEBOR L513 BRAVO BRAV1C |
| Aircraft | C750/M-SBDE3FGHRWXY/H |
Departure
| Time | 2026-05-06 17:05 |
|---|---|
| Airport | Damascus International Airport (OSDI) |
Arrival
| Time | 2026-05-06 17:33 |
|---|---|
| Airport | Latakia International Airport (OSLK) |
| Time | Latitude | Longitude | Altitude | Speed | Heading |
|---|---|---|---|---|---|
| 2026-05-06 17:05 | 33.70096 | 36.51170 | 25009 ft | 433 kts | 358° |
| 2026-05-06 17:05 | 33.73117 | 36.51526 | 25060 ft | 451 kts | 358° |
| 2026-05-06 17:05 | 33.76308 | 36.51942 | 25065 ft | 469 kts | 359° |
| 2026-05-06 17:06 | 33.79600 | 36.52407 | 25066 ft | 484 kts | 359° |
| 2026-05-06 17:06 | 33.82987 | 36.52866 | 25061 ft | 491 kts | 359° |
| 2026-05-06 17:06 | 33.86394 | 36.53306 | 25060 ft | 493 kts | 359° |
| 2026-05-06 17:06 | 33.89775 | 36.53725 | 25070 ft | 495 kts | 359° |
| 2026-05-06 17:07 | 33.93219 | 36.54141 | 25072 ft | 495 kts | 359° |
| 2026-05-06 17:07 | 33.96652 | 36.54566 | 25077 ft | 495 kts | 359° |
| 2026-05-06 17:07 | 34.00070 | 36.54998 | 25079 ft | 495 kts | 359° |
| 2026-05-06 17:07 | 34.03507 | 36.55429 | 25079 ft | 494 kts | 358° |
| 2026-05-06 17:08 | 34.06931 | 36.55852 | 25076 ft | 493 kts | 359° |
| 2026-05-06 17:08 | 34.10310 | 36.56271 | 25079 ft | 494 kts | 358° |
| 2026-05-06 17:08 | 34.13720 | 36.56698 | 25084 ft | 493 kts | 358° |
| 2026-05-06 17:08 | 34.17151 | 36.57128 | 25078 ft | 492 kts | 358° |
| 2026-05-06 17:09 | 34.20569 | 36.57555 | 25078 ft | 492 kts | 358° |
| 2026-05-06 17:09 | 34.23974 | 36.57979 | 25088 ft | 491 kts | 358° |
| 2026-05-06 17:09 | 34.27374 | 36.58426 | 25082 ft | 491 kts | 359° |
| 2026-05-06 17:09 | 34.30722 | 36.58976 | 25089 ft | 493 kts | 0° |
| 2026-05-06 17:10 | 34.34132 | 36.59546 | 25087 ft | 491 kts | 0° |
| 2026-05-06 17:10 | 34.37493 | 36.60094 | 25084 ft | 491 kts | 360° |
| 2026-05-06 17:10 | 34.40882 | 36.60637 | 25089 ft | 489 kts | 359° |
| 2026-05-06 17:10 | 34.44261 | 36.61188 | 25091 ft | 488 kts | 360° |
| 2026-05-06 17:11 | 34.47634 | 36.61746 | 25091 ft | 487 kts | 360° |
| 2026-05-06 17:11 | 34.50968 | 36.62293 | 25094 ft | 487 kts | 359° |
| 2026-05-06 17:11 | 34.54331 | 36.62841 | 25087 ft | 485 kts | 359° |
| 2026-05-06 17:11 | 34.57671 | 36.63188 | 25068 ft | 477 kts | 353° |
| 2026-05-06 17:12 | 34.60957 | 36.63057 | 25069 ft | 468 kts | 347° |
| 2026-05-06 17:12 | 34.64140 | 36.62513 | 24827 ft | 445 kts | 341° |
| 2026-05-06 17:12 | 34.67024 | 36.61618 | 24245 ft | 409 kts | 335° |
| 2026-05-06 17:12 | 34.69590 | 36.60488 | 23719 ft | 377 kts | 330° |
| 2026-05-06 17:13 | 34.71869 | 36.59188 | 23189 ft | 357 kts | 326° |
| 2026-05-06 17:13 | 34.74003 | 36.57686 | 22725 ft | 355 kts | 322° |
| 2026-05-06 17:13 | 34.76035 | 36.55961 | 22261 ft | 355 kts | 318° |
| 2026-05-06 17:13 | 34.77928 | 36.54045 | 21786 ft | 354 kts | 314° |
| 2026-05-06 17:14 | 34.79677 | 36.51948 | 21309 ft | 352 kts | 310° |
| 2026-05-06 17:14 | 34.81336 | 36.49782 | 20850 ft | 353 kts | 310° |
| 2026-05-06 17:14 | 34.83027 | 36.47610 | 20379 ft | 352 kts | 311° |
| 2026-05-06 17:14 | 34.84722 | 36.45436 | 19905 ft | 352 kts | 311° |
| 2026-05-06 17:15 | 34.86382 | 36.43284 | 19442 ft | 352 kts | 311° |
| 2026-05-06 17:15 | 34.88057 | 36.41107 | 18977 ft | 352 kts | 311° |
| 2026-05-06 17:15 | 34.89741 | 36.38927 | 18510 ft | 352 kts | 311° |
| 2026-05-06 17:15 | 34.91417 | 36.36759 | 17880 ft | 361 kts | 310° |
| 2026-05-06 17:16 | 34.93178 | 36.34472 | 17539 ft | 370 kts | 311° |
| 2026-05-06 17:16 | 34.94934 | 36.32194 | 17039 ft | 368 kts | 311° |
| 2026-05-06 17:16 | 34.96660 | 36.29957 | 16575 ft | 366 kts | 311° |
| 2026-05-06 17:16 | 34.98399 | 36.27696 | 16084 ft | 364 kts | 311° |
| 2026-05-06 17:17 | 35.00127 | 36.25449 | 15597 ft | 361 kts | 311° |
| 2026-05-06 17:17 | 35.01821 | 36.23245 | 15113 ft | 348 kts | 312° |
| 2026-05-06 17:17 | 35.03430 | 36.21152 | 14658 ft | 336 kts | 312° |
| 2026-05-06 17:17 | 35.05028 | 36.19069 | 14221 ft | 337 kts | 312° |
| 2026-05-06 17:18 | 35.06629 | 36.16980 | 13755 ft | 337 kts | 312° |
| 2026-05-06 17:18 | 35.08237 | 36.14886 | 13298 ft | 335 kts | 312° |
| 2026-05-06 17:18 | 35.09813 | 36.12830 | 12862 ft | 334 kts | 312° |
| 2026-05-06 17:18 | 35.11403 | 36.10752 | 12415 ft | 332 kts | 312° |
| 2026-05-06 17:19 | 35.12981 | 36.08690 | 11973 ft | 331 kts | 312° |
| 2026-05-06 17:19 | 35.14549 | 36.06641 | 11539 ft | 330 kts | 312° |
| 2026-05-06 17:19 | 35.16108 | 36.04600 | 11101 ft | 321 kts | 311° |
| 2026-05-06 17:19 | 35.17569 | 36.02690 | 10695 ft | 299 kts | 311° |
| 2026-05-06 17:20 | 35.18948 | 36.00885 | 10314 ft | 282 kts | 311° |
| 2026-05-06 17:20 | 35.20259 | 35.99166 | 9942 ft | 270 kts | 311° |
| 2026-05-06 17:20 | 35.21535 | 35.97497 | 9569 ft | 266 kts | 312° |
| 2026-05-06 17:20 | 35.23024 | 35.96204 | 9165 ft | 269 kts | 333° |
| 2026-05-06 17:21 | 35.24866 | 35.95699 | 8826 ft | 274 kts | 353° |
| 2026-05-06 17:21 | 35.26768 | 35.95643 | 8527 ft | 275 kts | 355° |
| 2026-05-06 17:21 | 35.28691 | 35.95591 | 8162 ft | 276 kts | 355° |
| 2026-05-06 17:21 | 35.30582 | 35.95517 | 7795 ft | 275 kts | 355° |
| 2026-05-06 17:22 | 35.32495 | 35.95443 | 7422 ft | 272 kts | 355° |
| 2026-05-06 17:22 | 35.34380 | 35.95377 | 7067 ft | 270 kts | 355° |
| 2026-05-06 17:22 | 35.36264 | 35.95310 | 6700 ft | 269 kts | 355° |
| 2026-05-06 17:22 | 35.38115 | 35.95243 | 6333 ft | 268 kts | 355° |
| 2026-05-06 17:23 | 35.39976 | 35.95158 | 5951 ft | 265 kts | 353° |
| 2026-05-06 17:23 | 35.41818 | 35.94940 | 5562 ft | 266 kts | 352° |
| 2026-05-06 17:23 | 35.43671 | 35.94790 | 5213 ft | 266 kts | 353° |
| 2026-05-06 17:23 | 35.45500 | 35.94633 | 4860 ft | 266 kts | 352° |
| 2026-05-06 17:24 | 35.47343 | 35.94447 | 4487 ft | 264 kts | 352° |
| 2026-05-06 17:24 | 35.49150 | 35.94066 | 4117 ft | 262 kts | 341° |
| 2026-05-06 17:24 | 35.50859 | 35.93314 | 3799 ft | 259 kts | 336° |
| 2026-05-06 17:24 | 35.52516 | 35.92517 | 3492 ft | 256 kts | 336° |
| 2026-05-06 17:25 | 35.54097 | 35.91759 | 3149 ft | 230 kts | 336° |
| 2026-05-06 17:25 | 35.55517 | 35.91087 | 2913 ft | 212 kts | 336° |
| 2026-05-06 17:25 | 35.56864 | 35.90462 | 2923 ft | 203 kts | 336° |
| 2026-05-06 17:25 | 35.58113 | 35.89975 | 2858 ft | 179 kts | 351° |
| 2026-05-06 17:26 | 35.59272 | 35.90491 | 2613 ft | 182 kts | 35° |
| 2026-05-06 17:26 | 35.60157 | 35.91516 | 2699 ft | 176 kts | 52° |
| 2026-05-06 17:26 | 35.60543 | 35.92954 | 2775 ft | 183 kts | 86° |
| 2026-05-06 17:26 | 35.60288 | 35.94472 | 2872 ft | 185 kts | 117° |
| 2026-05-06 17:27 | 35.59491 | 35.95605 | 2915 ft | 160 kts | 148° |
| 2026-05-06 17:27 | 35.58585 | 35.96082 | 2909 ft | 128 kts | 172° |
| 2026-05-06 17:27 | 35.57732 | 35.96123 | 2919 ft | 121 kts | 192° |
| 2026-05-06 17:27 | 35.56886 | 35.95952 | 2932 ft | 124 kts | 194° |
| 2026-05-06 17:28 | 35.56043 | 35.95801 | 2932 ft | 121 kts | 193° |
| 2026-05-06 17:28 | 35.55188 | 35.95636 | 2864 ft | 127 kts | 193° |
| 2026-05-06 17:28 | 35.54323 | 35.95468 | 2703 ft | 127 kts | 193° |
| 2026-05-06 17:28 | 35.53446 | 35.95296 | 2537 ft | 127 kts | 193° |
| 2026-05-06 17:29 | 35.52575 | 35.95131 | 2358 ft | 126 kts | 192° |
| 2026-05-06 17:29 | 35.51717 | 35.94974 | 2206 ft | 124 kts | 192° |
| 2026-05-06 17:29 | 35.50849 | 35.94816 | 2032 ft | 125 kts | 192° |
| 2026-05-06 17:29 | 35.50001 | 35.94663 | 1865 ft | 124 kts | 191° |
| 2026-05-06 17:30 | 35.49167 | 35.94472 | 1748 ft | 121 kts | 199° |
| 2026-05-06 17:30 | 35.48333 | 35.94307 | 1553 ft | 123 kts | 179° |
| 2026-05-06 17:30 | 35.47472 | 35.94338 | 1398 ft | 125 kts | 180° |
| 2026-05-06 17:30 | 35.46607 | 35.94382 | 1228 ft | 125 kts | 178° |
| 2026-05-06 17:31 | 35.45742 | 35.94428 | 1050 ft | 124 kts | 177° |
| 2026-05-06 17:31 | 35.44878 | 35.94491 | 880 ft | 124 kts | 176° |
| 2026-05-06 17:31 | 35.44029 | 35.94553 | 715 ft | 123 kts | 176° |
| 2026-05-06 17:31 | 35.43174 | 35.94616 | 563 ft | 123 kts | 176° |
| 2026-05-06 17:32 | 35.42321 | 35.94678 | 405 ft | 122 kts | 177° |
| 2026-05-06 17:32 | 35.41460 | 35.94743 | 233 ft | 125 kts | 177° |
| 2026-05-06 17:32 | 35.40660 | 35.94797 | 205 ft | 95 kts | 176° |
| 2026-05-06 17:32 | 35.40167 | 35.94834 | 203 ft | 56 kts | 176° |
| 2026-05-06 17:33 | 35.39806 | 35.94856 | 202 ft | 48 kts | 178° |
| 2026-05-06 17:33 | 35.39488 | 35.94868 | 200 ft | 43 kts | 177° |
| 2026-05-06 17:33 | 35.39308 | 35.94882 | 201 ft | 15 kts | 175° |
| 2026-05-06 17:33 | 35.39202 | 35.94892 | 200 ft | 15 kts | 175° |
| 2026-05-06 17:34 | 35.39133 | 35.94912 | 203 ft | 5 kts | 79° |
| 2026-05-06 17:34 | 35.39183 | 35.94905 | 200 ft | 14 kts | 349° |
| 2026-05-06 17:34 | 35.39283 | 35.94897 | 201 ft | 14 kts | 356° |
| 2026-05-06 17:34 | 35.39373 | 35.94890 | 202 ft | 13 kts | 356° |
| 2026-05-06 17:35 | 35.39463 | 35.94881 | 200 ft | 14 kts | 355° |
| 2026-05-06 17:35 | 35.39563 | 35.94871 | 200 ft | 15 kts | 357° |
| 2026-05-06 17:35 | 35.39661 | 35.94869 | 201 ft | 13 kts | 359° |
| 2026-05-06 17:36 | 35.39891 | 35.94849 | 201 ft | 21 kts | 354° |
| 2026-05-06 17:36 | 35.40038 | 35.94839 | 202 ft | 21 kts | 356° |
| 2026-05-06 17:36 | 35.40176 | 35.94830 | 202 ft | 19 kts | 358° |
| 2026-05-06 17:36 | 35.40312 | 35.94825 | 203 ft | 20 kts | 358° |
| 2026-05-06 17:37 | 35.40453 | 35.94819 | 196 ft | 20 kts | 358° |
| 2026-05-06 17:37 | 35.40541 | 35.94817 | 200 ft | 18 kts | 359° |
| 2026-05-06 17:37 | 35.40666 | 35.94810 | 198 ft | 18 kts | 355° |
| 2026-05-06 17:37 | 35.40749 | 35.94901 | 197 ft | 10 kts | 85° |
| 2026-05-06 17:38 | 35.40752 | 35.94948 | 195 ft | 9 kts | 85° |
| 2026-05-06 17:38 | 35.40760 | 35.95062 | 199 ft | 16 kts | 86° |
| 2026-05-06 17:38 | 35.40766 | 35.95205 | 198 ft | 17 kts | 87° |
| 2026-05-06 17:38 | 35.40772 | 35.95324 | 199 ft | 10 kts | 84° |
| 2026-05-06 17:39 | 35.40811 | 35.95344 | 197 ft | 8 kts | 356° |
| 2026-05-06 17:39 | 35.40817 | 35.95344 | 197 ft | 0 kts | 356° |